sensor_id;sensor_type;location;lat;lon;timestamp;P1;durP1;ratioP1;P2;durP2;ratioP2
44358;SDS011;30077;52.474;13.326;2022-10-16T00:02:45;2.85;;;2.65;;
44358;SDS011;30077;52.474;13.326;2022-10-16T00:07:46;3.88;;;2.63;;
44358;SDS011;30077;52.474;13.326;2022-10-16T00:12:46;3.70;;;2.50;;
44358;SDS011;30077;52.474;13.326;2022-10-16T00:17:46;3.50;;;2.43;;
44358;SDS011;30077;52.474;13.326;2022-10-16T00:22:46;3.08;;;2.85;;
44358;SDS011;30077;52.474;13.326;2022-10-16T00:27:47;4.63;;;2.55;;
44358;SDS011;30077;52.474;13.326;2022-10-16T00:32:47;2.67;;;2.27;;
44358;SDS011;30077;52.474;13.326;2022-10-16T00:37:47;4.32;;;2.50;;
44358;SDS011;30077;52.474;13.326;2022-10-16T00:42:48;6.20;;;4.05;;
44358;SDS011;30077;52.474;13.326;2022-10-16T00:47:48;6.43;;;3.22;;
44358;SDS011;30077;52.474;13.326;2022-10-16T00:52:52;3.03;;;2.70;;
44358;SDS011;30077;52.474;13.326;2022-10-16T00:57:54;3.20;;;2.90;;
44358;SDS011;30077;52.474;13.326;2022-10-16T01:02:58;3.65;;;2.42;;
44358;SDS011;30077;52.474;13.326;2022-10-16T01:13:12;3.90;;;2.30;;
44358;SDS011;30077;52.474;13.326;2022-10-16T01:23:51;2.90;;;2.60;;
44358;SDS011;30077;52.474;13.326;2022-10-16T01:30:07;2.45;;;2.25;;
44358;SDS011;30077;52.474;13.326;2022-10-16T01:35:14;4.82;;;2.30;;
44358;SDS011;30077;52.474;13.326;2022-10-16T01:40:11;2.33;;;1.95;;
44358;SDS011;30077;52.474;13.326;2022-10-16T01:45:14;4.68;;;2.55;;
44358;SDS011;30077;52.474;13.326;2022-10-16T01:50:19;3.92;;;2.92;;
44358;SDS011;30077;52.474;13.326;2022-10-16T01:55:22;4.22;;;2.75;;
44358;SDS011;30077;52.474;13.326;2022-10-16T02:00:28;2.35;;;2.00;;
44358;SDS011;30077;52.474;13.326;2022-10-16T02:05:31;2.83;;;2.60;;
44358;SDS011;30077;52.474;13.326;2022-10-16T02:10:36;5.68;;;2.55;;
44358;SDS011;30077;52.474;13.326;2022-10-16T02:15:37;3.25;;;2.60;;
44358;SDS011;30077;52.474;13.326;2022-10-16T02:25:59;3.13;;;2.20;;
44358;SDS011;30077;52.474;13.326;2022-10-16T02:31:04;2.67;;;2.47;;
44358;SDS011;30077;52.474;13.326;2022-10-16T02:36:08;2.63;;;2.42;;
44358;SDS011;30077;52.474;13.326;2022-10-16T02:41:09;3.22;;;2.67;;
44358;SDS011;30077;52.474;13.326;2022-10-16T02:46:10;2.70;;;2.25;;
44358;SDS011;30077;52.474;13.326;2022-10-16T02:51:10;3.10;;;1.90;;
44358;SDS011;30077;52.474;13.326;2022-10-16T02:56:10;3.78;;;2.35;;
44358;SDS011;30077;52.474;13.326;2022-10-16T03:01:10;2.50;;;2.30;;
44358;SDS011;30077;52.474;13.326;2022-10-16T03:06:12;2.63;;;2.42;;
44358;SDS011;30077;52.474;13.326;2022-10-16T03:11:12;4.50;;;2.40;;
44358;SDS011;30077;52.474;13.326;2022-10-16T03:16:13;2.60;;;2.40;;
44358;SDS011;30077;52.474;13.326;2022-10-16T03:21:13;4.05;;;2.50;;
44358;SDS011;30077;52.474;13.326;2022-10-16T03:26:13;4.28;;;2.75;;
44358;SDS011;30077;52.474;13.326;2022-10-16T03:31:13;2.67;;;2.47;;
44358;SDS011;30077;52.474;13.326;2022-10-16T03:36:14;2.47;;;2.28;;
44358;SDS011;30077;52.474;13.326;2022-10-16T03:41:14;4.43;;;2.70;;
44358;SDS011;30077;52.474;13.326;2022-10-16T03:46:14;4.37;;;2.57;;
44358;SDS011;30077;52.474;13.326;2022-10-16T03:51:15;2.92;;;2.47;;
44358;SDS011;30077;52.474;13.326;2022-10-16T03:56:15;5.55;;;2.90;;
44358;SDS011;30077;52.474;13.326;2022-10-16T04:01:15;3.45;;;2.83;;
44358;SDS011;30077;52.474;13.326;2022-10-16T04:06:16;3.60;;;3.15;;
44358;SDS011;30077;52.474;13.326;2022-10-16T04:11:16;3.00;;;2.70;;
44358;SDS011;30077;52.474;13.326;2022-10-16T04:16:16;3.70;;;3.10;;
44358;SDS011;30077;52.474;13.326;2022-10-16T04:21:17;3.07;;;2.73;;
44358;SDS011;30077;52.474;13.326;2022-10-16T04:26:17;5.88;;;3.00;;
44358;SDS011;30077;52.474;13.326;2022-10-16T04:31:17;3.20;;;2.80;;
44358;SDS011;30077;52.474;13.326;2022-10-16T04:36:17;4.10;;;3.03;;
44358;SDS011;30077;52.474;13.326;2022-10-16T04:41:17;4.50;;;3.42;;
44358;SDS011;30077;52.474;13.326;2022-10-16T04:46:18;4.50;;;3.10;;
44358;SDS011;30077;52.474;13.326;2022-10-16T04:51:18;3.05;;;2.75;;
44358;SDS011;30077;52.474;13.326;2022-10-16T04:56:18;3.53;;;2.75;;
44358;SDS011;30077;52.474;13.326;2022-10-16T05:01:19;4.18;;;3.00;;
44358;SDS011;30077;52.474;13.326;2022-10-16T05:06:19;10.33;;;3.50;;
44358;SDS011;30077;52.474;13.326;2022-10-16T05:11:19;3.63;;;3.15;;
44358;SDS011;30077;52.474;13.326;2022-10-16T05:16:19;3.85;;;3.47;;
44358;SDS011;30077;52.474;13.326;2022-10-16T05:21:20;4.55;;;2.83;;
44358;SDS011;30077;52.474;13.326;2022-10-16T05:26:20;4.35;;;2.92;;
44358;SDS011;30077;52.474;13.326;2022-10-16T05:31:21;3.87;;;3.40;;
44358;SDS011;30077;52.474;13.326;2022-10-16T05:36:21;4.27;;;3.30;;
44358;SDS011;30077;52.474;13.326;2022-10-16T05:41:21;4.43;;;3.60;;
44358;SDS011;30077;52.474;13.326;2022-10-16T05:46:23;4.47;;;3.67;;
44358;SDS011;30077;52.474;13.326;2022-10-16T05:51:23;3.88;;;3.33;;
44358;SDS011;30077;52.474;13.326;2022-10-16T05:56:23;3.67;;;3.38;;
44358;SDS011;30077;52.474;13.326;2022-10-16T06:01:24;4.47;;;3.47;;
44358;SDS011;30077;52.474;13.326;2022-10-16T06:06:25;6.65;;;3.10;;
44358;SDS011;30077;52.474;13.326;2022-10-16T06:11:28;3.97;;;3.17;;
44358;SDS011;30077;52.474;13.326;2022-10-16T06:16:30;3.45;;;3.13;;
44358;SDS011;30077;52.474;13.326;2022-10-16T06:21:30;5.00;;;3.35;;
44358;SDS011;30077;52.474;13.326;2022-10-16T06:26:31;3.80;;;3.50;;
44358;SDS011;30077;52.474;13.326;2022-10-16T06:31:32;6.88;;;4.07;;
44358;SDS011;30077;52.474;13.326;2022-10-16T06:36:33;5.63;;;3.40;;
44358;SDS011;30077;52.474;13.326;2022-10-16T06:41:33;7.30;;;2.90;;
44358;SDS011;30077;52.474;13.326;2022-10-16T06:46:35;4.68;;;2.80;;
44358;SDS011;30077;52.474;13.326;2022-10-16T06:51:35;3.72;;;3.30;;
44358;SDS011;30077;52.474;13.326;2022-10-16T06:56:40;3.88;;;2.72;;
44358;SDS011;30077;52.474;13.326;2022-10-16T07:01:41;2.83;;;2.60;;
44358;SDS011;30077;52.474;13.326;2022-10-16T07:06:41;4.25;;;2.70;;
44358;SDS011;30077;52.474;13.326;2022-10-16T07:11:41;3.30;;;2.45;;
44358;SDS011;30077;52.474;13.326;2022-10-16T07:16:41;2.58;;;2.08;;
44358;SDS011;30077;52.474;13.326;2022-10-16T07:21:42;2.75;;;1.90;;
44358;SDS011;30077;52.474;13.326;2022-10-16T07:26:43;3.30;;;2.30;;
44358;SDS011;30077;52.474;13.326;2022-10-16T07:36:47;2.43;;;2.00;;
44358;SDS011;30077;52.474;13.326;2022-10-16T07:41:48;1.85;;;1.75;;
44358;SDS011;30077;52.474;13.326;2022-10-16T07:46:48;2.78;;;2.05;;
44358;SDS011;30077;52.474;13.326;2022-10-16T07:51:49;2.20;;;1.98;;
44358;SDS011;30077;52.474;13.326;2022-10-16T07:56:49;2.80;;;2.25;;
44358;SDS011;30077;52.474;13.326;2022-10-16T08:01:49;4.03;;;2.60;;
44358;SDS011;30077;52.474;13.326;2022-10-16T08:06:49;5.07;;;2.47;;
44358;SDS011;30077;52.474;13.326;2022-10-16T08:11:50;2.40;;;1.77;;
44358;SDS011;30077;52.474;13.326;2022-10-16T08:16:54;3.38;;;2.00;;
44358;SDS011;30077;52.474;13.326;2022-10-16T08:21:54;3.13;;;2.35;;
44358;SDS011;30077;52.474;13.326;2022-10-16T08:26:54;3.23;;;1.80;;
44358;SDS011;30077;52.474;13.326;2022-10-16T08:31:56;2.20;;;1.55;;
44358;SDS011;30077;52.474;13.326;2022-10-16T08:36:56;5.43;;;3.50;;
44358;SDS011;30077;52.474;13.326;2022-10-16T08:52:25;6.40;;;1.70;;
44358;SDS011;30077;52.474;13.326;2022-10-16T08:57:30;1.77;;;1.38;;
44358;SDS011;30077;52.474;13.326;2022-10-16T09:02:37;2.15;;;1.63;;
44358;SDS011;30077;52.474;13.326;2022-10-16T09:12:57;3.03;;;1.52;;
44358;SDS011;30077;52.474;13.326;2022-10-16T09:18:05;2.13;;;1.92;;
44358;SDS011;30077;52.474;13.326;2022-10-16T09:23:28;1.60;;;1.50;;
44358;SDS011;30077;52.474;13.326;2022-10-16T09:28:31;2.85;;;2.20;;
44358;SDS011;30077;52.474;13.326;2022-10-16T09:33:35;3.47;;;2.50;;
44358;SDS011;30077;52.474;13.326;2022-10-16T09:38:38;5.03;;;2.58;;
44358;SDS011;30077;52.474;13.326;2022-10-16T09:43:40;3.20;;;1.70;;
44358;SDS011;30077;52.474;13.326;2022-10-16T09:49:03;3.28;;;1.77;;
44358;SDS011;30077;52.474;13.326;2022-10-16T09:59:11;6.82;;;2.30;;
44358;SDS011;30077;52.474;13.326;2022-10-16T10:14:27;6.93;;;6.13;;
44358;SDS011;30077;52.474;13.326;2022-10-16T10:19:46;4.35;;;2.05;;
44358;SDS011;30077;52.474;13.326;2022-10-16T10:24:56;2.75;;;1.85;;
44358;SDS011;30077;52.474;13.326;2022-10-16T10:35:33;1.48;;;1.38;;
44358;SDS011;30077;52.474;13.326;2022-10-16T10:46:23;3.85;;;2.65;;
44358;SDS011;30077;52.474;13.326;2022-10-16T10:51:48;2.75;;;1.60;;
44358;SDS011;30077;52.474;13.326;2022-10-16T10:57:07;3.75;;;1.20;;
44358;SDS011;30077;52.474;13.326;2022-10-16T11:02:20;4.53;;;2.05;;
44358;SDS011;30077;52.474;13.326;2022-10-16T11:07:34;3.67;;;1.40;;
44358;SDS011;30077;52.474;13.326;2022-10-16T11:12:44;1.70;;;1.20;;
44358;SDS011;30077;52.474;13.326;2022-10-16T11:23:18;2.65;;;1.27;;
44358;SDS011;30077;52.474;13.326;2022-10-16T11:28:27;3.03;;;1.50;;
44358;SDS011;30077;52.474;13.326;2022-10-16T11:33:45;1.80;;;1.17;;
44358;SDS011;30077;52.474;13.326;2022-10-16T11:39:00;2.85;;;1.20;;
44358;SDS011;30077;52.474;13.326;2022-10-16T11:49:32;4.57;;;2.80;;
44358;SDS011;30077;52.474;13.326;2022-10-16T11:54:56;3.97;;;1.27;;
44358;SDS011;30077;52.474;13.326;2022-10-16T12:00:05;2.30;;;1.52;;
44358;SDS011;30077;52.474;13.326;2022-10-16T12:05:23;1.33;;;1.10;;
44358;SDS011;30077;52.474;13.326;2022-10-16T12:10:36;1.80;;;1.50;;
44358;SDS011;30077;52.474;13.326;2022-10-16T12:15:37;3.83;;;1.27;;
44358;SDS011;30077;52.474;13.326;2022-10-16T12:20:37;2.37;;;1.10;;
44358;SDS011;30077;52.474;13.326;2022-10-16T12:25:53;1.10;;;1.00;;
44358;SDS011;30077;52.474;13.326;2022-10-16T12:30:56;1.40;;;0.70;;
44358;SDS011;30077;52.474;13.326;2022-10-16T12:35:59;1.33;;;1.23;;
44358;SDS011;30077;52.474;13.326;2022-10-16T12:46:05;1.27;;;1.10;;
44358;SDS011;30077;52.474;13.326;2022-10-16T12:51:22;2.17;;;1.10;;
44358;SDS011;30077;52.474;13.326;2022-10-16T12:56:36;1.00;;;0.70;;
44358;SDS011;30077;52.474;13.326;2022-10-16T13:01:56;1.02;;;0.70;;
44358;SDS011;30077;52.474;13.326;2022-10-16T13:28:52;4.30;;;1.70;;
44358;SDS011;30077;52.474;13.326;2022-10-16T13:33:53;0.77;;;0.77;;
44358;SDS011;30077;52.474;13.326;2022-10-16T13:44:40;0.80;;;0.80;;
44358;SDS011;30077;52.474;13.326;2022-10-16T13:49:44;2.85;;;1.40;;
44358;SDS011;30077;52.474;13.326;2022-10-16T13:54:47;2.20;;;1.50;;
44358;SDS011;30077;52.474;13.326;2022-10-16T13:59:48;3.42;;;2.30;;
44358;SDS011;30077;52.474;13.326;2022-10-16T14:04:49;5.15;;;3.03;;
44358;SDS011;30077;52.474;13.326;2022-10-16T14:09:50;2.03;;;1.02;;
44358;SDS011;30077;52.474;13.326;2022-10-16T14:14:52;3.35;;;2.17;;
44358;SDS011;30077;52.474;13.326;2022-10-16T14:19:55;3.63;;;1.42;;
44358;SDS011;30077;52.474;13.326;2022-10-16T14:24:56;7.03;;;1.92;;
44358;SDS011;30077;52.474;13.326;2022-10-16T14:30:13;2.00;;;1.33;;
44358;SDS011;30077;52.474;13.326;2022-10-16T14:40:36;1.83;;;1.05;;
44358;SDS011;30077;52.474;13.326;2022-10-16T14:45:37;1.38;;;0.90;;
44358;SDS011;30077;52.474;13.326;2022-10-16T14:50:58;1.73;;;1.60;;
44358;SDS011;30077;52.474;13.326;2022-10-16T14:56:05;2.05;;;1.13;;
44358;SDS011;30077;52.474;13.326;2022-10-16T15:01:07;2.63;;;1.15;;
44358;SDS011;30077;52.474;13.326;2022-10-16T15:06:11;1.45;;;1.10;;
44358;SDS011;30077;52.474;13.326;2022-10-16T15:11:13;2.50;;;1.20;;
44358;SDS011;30077;52.474;13.326;2022-10-16T15:16:18;2.15;;;1.75;;
44358;SDS011;30077;52.474;13.326;2022-10-16T15:21:27;1.27;;;1.10;;
44358;SDS011;30077;52.474;13.326;2022-10-16T15:26:29;1.45;;;1.30;;
44358;SDS011;30077;52.474;13.326;2022-10-16T15:31:30;3.17;;;1.55;;
44358;SDS011;30077;52.474;13.326;2022-10-16T15:36:32;2.67;;;1.30;;
44358;SDS011;30077;52.474;13.326;2022-10-16T15:41:36;4.50;;;1.40;;
44358;SDS011;30077;52.474;13.326;2022-10-16T15:46:36;3.20;;;1.48;;
44358;SDS011;30077;52.474;13.326;2022-10-16T15:51:37;4.80;;;2.97;;
44358;SDS011;30077;52.474;13.326;2022-10-16T15:56:38;2.58;;;1.80;;
44358;SDS011;30077;52.474;13.326;2022-10-16T16:01:39;2.17;;;1.23;;
44358;SDS011;30077;52.474;13.326;2022-10-16T16:06:39;2.75;;;1.60;;
44358;SDS011;30077;52.474;13.326;2022-10-16T16:11:44;5.13;;;2.60;;
44358;SDS011;30077;52.474;13.326;2022-10-16T16:16:44;2.90;;;2.20;;
44358;SDS011;30077;52.474;13.326;2022-10-16T16:21:44;3.38;;;2.38;;
44358;SDS011;30077;52.474;13.326;2022-10-16T16:26:45;6.32;;;2.10;;
44358;SDS011;30077;52.474;13.326;2022-10-16T16:31:45;4.43;;;2.65;;
44358;SDS011;30077;52.474;13.326;2022-10-16T16:36:47;4.95;;;2.88;;
44358;SDS011;30077;52.474;13.326;2022-10-16T16:41:47;2.40;;;1.85;;
44358;SDS011;30077;52.474;13.326;2022-10-16T16:46:47;6.63;;;2.22;;
44358;SDS011;30077;52.474;13.326;2022-10-16T16:51:48;4.97;;;2.90;;
44358;SDS011;30077;52.474;13.326;2022-10-16T16:56:48;4.97;;;2.78;;
44358;SDS011;30077;52.474;13.326;2022-10-16T17:01:48;4.88;;;2.97;;
44358;SDS011;30077;52.474;13.326;2022-10-16T17:06:49;6.82;;;3.45;;
44358;SDS011;30077;52.474;13.326;2022-10-16T17:11:50;4.97;;;3.37;;
44358;SDS011;30077;52.474;13.326;2022-10-16T17:16:51;14.80;;;3.72;;
44358;SDS011;30077;52.474;13.326;2022-10-16T17:21:52;6.32;;;3.38;;
44358;SDS011;30077;52.474;13.326;2022-10-16T17:26:52;6.70;;;3.55;;
44358;SDS011;30077;52.474;13.326;2022-10-16T17:31:54;7.07;;;3.60;;
44358;SDS011;30077;52.474;13.326;2022-10-16T17:36:55;8.73;;;4.43;;
44358;SDS011;30077;52.474;13.326;2022-10-16T17:41:56;10.63;;;4.67;;
44358;SDS011;30077;52.474;13.326;2022-10-16T17:46:56;7.32;;;4.47;;
44358;SDS011;30077;52.474;13.326;2022-10-16T17:51:58;10.20;;;6.13;;
44358;SDS011;30077;52.474;13.326;2022-10-16T17:57:00;8.32;;;5.95;;
44358;SDS011;30077;52.474;13.326;2022-10-16T18:02:01;10.30;;;5.63;;
44358;SDS011;30077;52.474;13.326;2022-10-16T18:07:03;18.67;;;8.53;;
44358;SDS011;30077;52.474;13.326;2022-10-16T18:12:03;27.83;;;16.10;;
44358;SDS011;30077;52.474;13.326;2022-10-16T18:17:04;18.58;;;12.23;;
44358;SDS011;30077;52.474;13.326;2022-10-16T18:22:06;16.05;;;10.45;;
44358;SDS011;30077;52.474;13.326;2022-10-16T18:27:07;38.00;;;25.13;;
44358;SDS011;30077;52.474;13.326;2022-10-16T18:32:07;51.40;;;25.58;;
44358;SDS011;30077;52.474;13.326;2022-10-16T18:37:08;37.47;;;18.58;;
44358;SDS011;30077;52.474;13.326;2022-10-16T18:42:08;23.70;;;11.18;;
44358;SDS011;30077;52.474;13.326;2022-10-16T18:47:09;16.13;;;8.80;;
44358;SDS011;30077;52.474;13.326;2022-10-16T18:52:10;17.13;;;8.87;;
44358;SDS011;30077;52.474;13.326;2022-10-16T18:57:11;19.42;;;10.00;;
44358;SDS011;30077;52.474;13.326;2022-10-16T19:02:11;18.23;;;10.35;;
44358;SDS011;30077;52.474;13.326;2022-10-16T19:07:11;58.35;;;23.90;;
44358;SDS011;30077;52.474;13.326;2022-10-16T19:12:14;39.22;;;17.00;;
44358;SDS011;30077;52.474;13.326;2022-10-16T19:17:15;48.58;;;26.10;;
44358;SDS011;30077;52.474;13.326;2022-10-16T19:22:15;47.97;;;25.23;;
44358;SDS011;30077;52.474;13.326;2022-10-16T19:27:29;35.08;;;15.68;;
44358;SDS011;30077;52.474;13.326;2022-10-16T19:32:30;20.92;;;11.35;;
44358;SDS011;30077;52.474;13.326;2022-10-16T19:37:31;37.20;;;16.83;;
44358;SDS011;30077;52.474;13.326;2022-10-16T19:42:31;32.83;;;16.13;;
44358;SDS011;30077;52.474;13.326;2022-10-16T19:47:32;39.30;;;19.83;;
44358;SDS011;30077;52.474;13.326;2022-10-16T19:52:32;33.85;;;18.73;;
44358;SDS011;30077;52.474;13.326;2022-10-16T19:57:33;34.13;;;14.75;;
44358;SDS011;30077;52.474;13.326;2022-10-16T20:02:34;27.80;;;14.57;;
44358;SDS011;30077;52.474;13.326;2022-10-16T20:07:35;32.72;;;16.33;;
44358;SDS011;30077;52.474;13.326;2022-10-16T20:12:35;33.90;;;16.95;;
44358;SDS011;30077;52.474;13.326;2022-10-16T20:17:36;34.20;;;16.67;;
44358;SDS011;30077;52.474;13.326;2022-10-16T20:22:36;34.63;;;17.60;;
44358;SDS011;30077;52.474;13.326;2022-10-16T20:27:36;32.60;;;17.02;;
44358;SDS011;30077;52.474;13.326;2022-10-16T20:32:37;41.08;;;19.42;;
44358;SDS011;30077;52.474;13.326;2022-10-16T20:37:37;42.47;;;19.10;;
44358;SDS011;30077;52.474;13.326;2022-10-16T20:42:37;30.48;;;15.68;;
44358;SDS011;30077;52.474;13.326;2022-10-16T20:47:39;26.10;;;14.20;;
44358;SDS011;30077;52.474;13.326;2022-10-16T20:52:40;23.38;;;12.45;;
44358;SDS011;30077;52.474;13.326;2022-10-16T20:57:40;19.92;;;11.57;;
44358;SDS011;30077;52.474;13.326;2022-10-16T21:02:41;19.73;;;12.55;;
44358;SDS011;30077;52.474;13.326;2022-10-16T21:07:43;18.20;;;11.95;;
44358;SDS011;30077;52.474;13.326;2022-10-16T21:12:43;17.97;;;11.37;;
44358;SDS011;30077;52.474;13.326;2022-10-16T21:17:43;18.48;;;11.00;;
44358;SDS011;30077;52.474;13.326;2022-10-16T21:22:44;14.23;;;10.15;;
44358;SDS011;30077;52.474;13.326;2022-10-16T21:27:44;16.90;;;10.00;;
44358;SDS011;30077;52.474;13.326;2022-10-16T21:32:44;16.40;;;11.05;;
44358;SDS011;30077;52.474;13.326;2022-10-16T21:37:48;24.83;;;11.55;;
44358;SDS011;30077;52.474;13.326;2022-10-16T21:42:49;16.88;;;10.48;;
44358;SDS011;30077;52.474;13.326;2022-10-16T21:47:49;14.23;;;10.27;;
44358;SDS011;30077;52.474;13.326;2022-10-16T21:52:49;15.48;;;10.27;;
44358;SDS011;30077;52.474;13.326;2022-10-16T21:57:49;17.13;;;10.17;;
44358;SDS011;30077;52.474;13.326;2022-10-16T22:02:50;17.00;;;10.43;;
44358;SDS011;30077;52.474;13.326;2022-10-16T22:07:50;18.23;;;11.95;;
44358;SDS011;30077;52.474;13.326;2022-10-16T22:12:50;15.20;;;11.13;;
44358;SDS011;30077;52.474;13.326;2022-10-16T22:17:50;18.15;;;11.23;;
44358;SDS011;30077;52.474;13.326;2022-10-16T22:22:50;26.10;;;17.63;;
44358;SDS011;30077;52.474;13.326;2022-10-16T22:27:51;12.98;;;10.30;;
44358;SDS011;30077;52.474;13.326;2022-10-16T22:32:51;16.90;;;11.52;;
44358;SDS011;30077;52.474;13.326;2022-10-16T22:37:51;17.23;;;10.80;;
44358;SDS011;30077;52.474;13.326;2022-10-16T22:42:52;16.63;;;11.25;;
44358;SDS011;30077;52.474;13.326;2022-10-16T22:47:52;19.33;;;10.77;;
44358;SDS011;30077;52.474;13.326;2022-10-16T22:52:53;17.45;;;10.73;;
44358;SDS011;30077;52.474;13.326;2022-10-16T22:57:54;16.00;;;11.40;;
44358;SDS011;30077;52.474;13.326;2022-10-16T23:02:55;16.15;;;10.50;;
44358;SDS011;30077;52.474;13.326;2022-10-16T23:07:55;15.23;;;9.30;;
44358;SDS011;30077;52.474;13.326;2022-10-16T23:12:56;14.45;;;9.63;;
44358;SDS011;30077;52.474;13.326;2022-10-16T23:17:56;12.82;;;9.15;;
44358;SDS011;30077;52.474;13.326;2022-10-16T23:22:56;11.60;;;8.90;;
44358;SDS011;30077;52.474;13.326;2022-10-16T23:27:56;11.98;;;8.57;;
44358;SDS011;30077;52.474;13.326;2022-10-16T23:32:57;12.25;;;8.07;;
44358;SDS011;30077;52.474;13.326;2022-10-16T23:37:57;9.10;;;8.00;;
44358;SDS011;30077;52.474;13.326;2022-10-16T23:42:57;12.10;;;7.83;;
44358;SDS011;30077;52.474;13.326;2022-10-16T23:47:57;11.35;;;8.13;;
44358;SDS011;30077;52.474;13.326;2022-10-16T23:52:58;9.48;;;7.57;;
44358;SDS011;30077;52.474;13.326;2022-10-16T23:57:58;9.88;;;7.53;;
